sensor_id;sensor_type;location;lat;lon;timestamp;pressure;altitude;pressure_sealevel;temperature;humidity
74942;BME280;63506;49.346;8.798;2022-12-18T00:01:05;84373.06;;;14.73;0.00
74942;BME280;63506;49.346;8.798;2022-12-18T00:03:39;84378.81;;;14.71;0.00
74942;BME280;63506;49.346;8.798;2022-12-18T00:06:05;84379.00;;;14.73;0.00
74942;BME280;63506;49.346;8.798;2022-12-18T00:08:32;84378.63;;;14.69;0.00
74942;BME280;63506;49.346;8.798;2022-12-18T00:11:12;84372.88;;;14.71;0.00
74942;BME280;63506;49.346;8.798;2022-12-18T00:13:39;84379.16;;;14.68;0.00
74942;BME280;63506;49.346;8.798;2022-12-18T00:16:13;84377.72;;;14.67;0.00
74942;BME280;63506;49.346;8.798;2022-12-18T00:18:43;84382.97;;;14.67;0.00
74942;BME280;63506;49.346;8.798;2022-12-18T00:21:11;84386.31;;;14.67;0.00
74942;BME280;63506;49.346;8.798;2022-12-18T00:23:40;84383.28;;;14.63;0.00
74942;BME280;63506;49.346;8.798;2022-12-18T00:26:11;84386.44;;;14.62;0.00
74942;BME280;63506;49.346;8.798;2022-12-18T00:28:41;84385.03;;;14.61;0.00
74942;BME280;63506;49.346;8.798;2022-12-18T00:31:13;84382.94;;;14.59;0.00
74942;BME280;63506;49.346;8.798;2022-12-18T00:33:44;84396.50;;;14.57;0.00
74942;BME280;63506;49.346;8.798;2022-12-18T00:39:05;84398.72;;;14.53;0.00
74942;BME280;63506;49.346;8.798;2022-12-18T00:41:36;84398.16;;;14.47;0.00
74942;BME280;63506;49.346;8.798;2022-12-18T00:44:23;84393.63;;;14.48;0.00
74942;BME280;63506;49.346;8.798;2022-12-18T00:46:50;84400.78;;;14.47;0.00
74942;BME280;63506;49.346;8.798;2022-12-18T00:49:18;84397.25;;;14.45;0.00
74942;BME280;63506;49.346;8.798;2022-12-18T00:51:44;84396.56;;;14.44;0.00
74942;BME280;63506;49.346;8.798;2022-12-18T00:54:11;84401.63;;;14.42;0.00
74942;BME280;63506;49.346;8.798;2022-12-18T00:56:38;84401.22;;;14.38;0.00
74942;BME280;63506;49.346;8.798;2022-12-18T00:59:05;84410.31;;;14.37;0.00
74942;BME280;63506;49.346;8.798;2022-12-18T01:01:31;84414.13;;;14.36;0.00
74942;BME280;63506;49.346;8.798;2022-12-18T01:04:00;84415.84;;;14.33;0.00
74942;BME280;63506;49.346;8.798;2022-12-18T01:06:26;84417.97;;;14.35;0.00
74942;BME280;63506;49.346;8.798;2022-12-18T01:08:53;84424.72;;;14.30;0.00
74942;BME280;63506;49.346;8.798;2022-12-18T01:11:20;84422.09;;;14.30;0.00
74942;BME280;63506;49.346;8.798;2022-12-18T01:13:47;84413.56;;;14.30;0.00
74942;BME280;63506;49.346;8.798;2022-12-18T01:16:16;84413.34;;;14.28;0.00
74942;BME280;63506;49.346;8.798;2022-12-18T01:18:43;84420.81;;;14.24;0.00
74942;BME280;63506;49.346;8.798;2022-12-18T01:21:14;84427.47;;;14.25;0.00
74942;BME280;63506;49.346;8.798;2022-12-18T01:23:40;84423.44;;;14.24;0.00
74942;BME280;63506;49.346;8.798;2022-12-18T01:26:08;84414.69;;;14.21;0.00
74942;BME280;63506;49.346;8.798;2022-12-18T01:28:35;84416.41;;;14.18;0.00
74942;BME280;63506;49.346;8.798;2022-12-18T01:33:48;84413.78;;;14.18;0.00
74942;BME280;63506;49.346;8.798;2022-12-18T01:36:19;84422.84;;;14.17;0.00
74942;BME280;63506;49.346;8.798;2022-12-18T01:38:46;84421.97;;;14.15;0.00
74942;BME280;63506;49.346;8.798;2022-12-18T01:41:15;84417.03;;;14.11;0.00
74942;BME280;63506;49.346;8.798;2022-12-18T01:43:46;84428.91;;;14.12;0.00
74942;BME280;63506;49.346;8.798;2022-12-18T01:46:15;84429.03;;;14.07;0.00
74942;BME280;63506;49.346;8.798;2022-12-18T01:48:42;84427.31;;;14.09;0.00
74942;BME280;63506;49.346;8.798;2022-12-18T01:51:10;84428.53;;;14.08;0.00
74942;BME280;63506;49.346;8.798;2022-12-18T01:53:41;84433.56;;;14.06;0.00
74942;BME280;63506;49.346;8.798;2022-12-18T01:56:12;84438.38;;;14.02;0.00
74942;BME280;63506;49.346;8.798;2022-12-18T02:01:09;84429.66;;;13.99;0.00
74942;BME280;63506;49.346;8.798;2022-12-18T02:03:36;84422.81;;;13.96;0.00
74942;BME280;63506;49.346;8.798;2022-12-18T02:06:27;84415.47;;;13.95;0.00
74942;BME280;63506;49.346;8.798;2022-12-18T02:11:56;84423.31;;;13.95;0.00
74942;BME280;63506;49.346;8.798;2022-12-18T02:17:12;84432.50;;;13.88;0.00
74942;BME280;63506;49.346;8.798;2022-12-18T02:22:44;84437.84;;;13.82;0.00
74942;BME280;63506;49.346;8.798;2022-12-18T02:28:09;84443.78;;;13.83;0.00
74942;BME280;63506;49.346;8.798;2022-12-18T02:30:44;84445.28;;;13.78;0.00
74942;BME280;63506;49.346;8.798;2022-12-18T02:33:12;84453.13;;;13.78;0.00
74942;BME280;63506;49.346;8.798;2022-12-18T02:35:44;84461.19;;;13.80;0.00
74942;BME280;63506;49.346;8.798;2022-12-18T02:38:11;84450.81;;;13.75;0.00
74942;BME280;63506;49.346;8.798;2022-12-18T02:40:40;84459.16;;;13.73;0.00
74942;BME280;63506;49.346;8.798;2022-12-18T02:43:10;84450.94;;;13.69;0.00
74942;BME280;63506;49.346;8.798;2022-12-18T02:45:49;84450.06;;;13.67;0.00
74942;BME280;63506;49.346;8.798;2022-12-18T02:48:19;84450.75;;;13.67;0.00
74942;BME280;63506;49.346;8.798;2022-12-18T02:51:03;84453.88;;;13.65;0.00
74942;BME280;63506;49.346;8.798;2022-12-18T02:56:29;84454.38;;;13.64;0.00
74942;BME280;63506;49.346;8.798;2022-12-18T02:59:01;84450.34;;;13.63;0.00
74942;BME280;63506;49.346;8.798;2022-12-18T03:01:57;84454.19;;;13.62;0.00
74942;BME280;63506;49.346;8.798;2022-12-18T03:07:38;84443.63;;;13.54;0.00
74942;BME280;63506;49.346;8.798;2022-12-18T03:10:11;84441.00;;;13.54;0.00
74942;BME280;63506;49.346;8.798;2022-12-18T03:12:49;84440.50;;;13.56;0.00
74942;BME280;63506;49.346;8.798;2022-12-18T03:15:23;84453.69;;;13.50;0.00
74942;BME280;63506;49.346;8.798;2022-12-18T03:18:03;84456.78;;;13.49;0.00
74942;BME280;63506;49.346;8.798;2022-12-18T03:20:34;84460.41;;;13.45;0.00
74942;BME280;63506;49.346;8.798;2022-12-18T03:23:07;84454.00;;;13.46;0.00
74942;BME280;63506;49.346;8.798;2022-12-18T03:25:38;84450.47;;;13.44;0.00
74942;BME280;63506;49.346;8.798;2022-12-18T03:28:10;84461.41;;;13.42;0.00
74942;BME280;63506;49.346;8.798;2022-12-18T03:30:40;84470.97;;;13.40;0.00
74942;BME280;63506;49.346;8.798;2022-12-18T03:33:37;84469.06;;;13.40;0.00
74942;BME280;63506;49.346;8.798;2022-12-18T03:36:05;84475.50;;;13.39;0.00
74942;BME280;63506;49.346;8.798;2022-12-18T03:38:33;84464.34;;;13.39;0.00
74942;BME280;63506;49.346;8.798;2022-12-18T03:41:10;84461.03;;;13.38;0.00
74942;BME280;63506;49.346;8.798;2022-12-18T03:50:43;84472.69;;;13.37;0.00
74942;BME280;63506;49.346;8.798;2022-12-18T03:53:18;84456.81;;;13.35;0.00
74942;BME280;63506;49.346;8.798;2022-12-18T03:55:51;84455.59;;;13.36;0.00
74942;BME280;63506;49.346;8.798;2022-12-18T03:58:20;84455.41;;;13.34;0.00
74942;BME280;63506;49.346;8.798;2022-12-18T04:01:00;84473.47;;;13.32;0.00
74942;BME280;63506;49.346;8.798;2022-12-18T04:03:31;84469.44;;;13.31;0.00
74942;BME280;63506;49.346;8.798;2022-12-18T04:05:59;84467.06;;;13.33;0.00
74942;BME280;63506;49.346;8.798;2022-12-18T04:08:28;84469.03;;;13.27;0.00
74942;BME280;63506;49.346;8.798;2022-12-18T04:11:04;84470.44;;;13.28;0.00
74942;BME280;63506;49.346;8.798;2022-12-18T04:13:37;84481.59;;;13.28;0.00
74942;BME280;63506;49.346;8.798;2022-12-18T04:16:08;84480.91;;;13.28;0.00
74942;BME280;63506;49.346;8.798;2022-12-18T04:18:40;84484.22;;;13.28;0.00
74942;BME280;63506;49.346;8.798;2022-12-18T04:21:08;84484.72;;;13.27;0.00
74942;BME280;63506;49.346;8.798;2022-12-18T04:23:37;84484.72;;;13.27;0.00
74942;BME280;63506;49.346;8.798;2022-12-18T04:26:04;84476.88;;;13.27;0.00
74942;BME280;63506;49.346;8.798;2022-12-18T04:28:40;84478.59;;;13.24;0.00
74942;BME280;63506;49.346;8.798;2022-12-18T04:31:06;84472.16;;;13.25;0.00
74942;BME280;63506;49.346;8.798;2022-12-18T04:33:35;84470.75;;;13.24;0.00
74942;BME280;63506;49.346;8.798;2022-12-18T04:36:04;84470.06;;;13.24;0.00
74942;BME280;63506;49.346;8.798;2022-12-18T04:38:30;84464.09;;;13.23;0.00
74942;BME280;63506;49.346;8.798;2022-12-18T04:41:05;84462.41;;;13.26;0.00
74942;BME280;63506;49.346;8.798;2022-12-18T04:43:31;84458.19;;;13.23;0.00
74942;BME280;63506;49.346;8.798;2022-12-18T04:46:06;84466.53;;;13.21;0.00
74942;BME280;63506;49.346;8.798;2022-12-18T04:48:33;84465.53;;;13.24;0.00
74942;BME280;63506;49.346;8.798;2022-12-18T04:51:01;84467.22;;;13.22;0.00
74942;BME280;63506;49.346;8.798;2022-12-18T04:53:27;84467.22;;;13.22;0.00
74942;BME280;63506;49.346;8.798;2022-12-18T04:56:04;84471.75;;;13.21;0.00
74942;BME280;63506;49.346;8.798;2022-12-18T04:58:31;84469.13;;;13.21;0.00
74942;BME280;63506;49.346;8.798;2022-12-18T05:00:57;84468.44;;;13.21;0.00
74942;BME280;63506;49.346;8.798;2022-12-18T05:03:23;84467.22;;;13.22;0.00
74942;BME280;63506;49.346;8.798;2022-12-18T05:05:50;84469.84;;;13.22;0.00
74942;BME280;63506;49.346;8.798;2022-12-18T05:08:17;84477.47;;;13.20;0.00
74942;BME280;63506;49.346;8.798;2022-12-18T05:10:43;84485.31;;;13.20;0.00
74942;BME280;63506;49.346;8.798;2022-12-18T05:13:12;84488.13;;;13.22;0.00
74942;BME280;63506;49.346;8.798;2022-12-18T05:15:38;84495.25;;;13.21;0.00
74942;BME280;63506;49.346;8.798;2022-12-18T05:18:04;84499.59;;;13.19;0.00
74942;BME280;63506;49.346;8.798;2022-12-18T05:20:31;84501.72;;;13.20;0.00
74942;BME280;63506;49.346;8.798;2022-12-18T05:22:59;84497.19;;;13.21;0.00
74942;BME280;63506;49.346;8.798;2022-12-18T05:25:25;84501.00;;;13.20;0.00
74942;BME280;63506;49.346;8.798;2022-12-18T05:27:51;84501.00;;;13.20;0.00
74942;BME280;63506;49.346;8.798;2022-12-18T05:30:18;84501.00;;;13.20;0.00
74942;BME280;63506;49.346;8.798;2022-12-18T05:32:44;84510.75;;;13.19;0.00
74942;BME280;63506;49.346;8.798;2022-12-18T05:35:10;84514.06;;;13.20;0.00
74942;BME280;63506;49.346;8.798;2022-12-18T05:37:39;84507.94;;;13.17;0.00
74942;BME280;63506;49.346;8.798;2022-12-18T05:40:05;84503.41;;;13.18;0.00
74942;BME280;63506;49.346;8.798;2022-12-18T05:42:32;84508.44;;;13.16;0.00
74942;BME280;63506;49.346;8.798;2022-12-18T05:44:58;84514.06;;;13.20;0.00
74942;BME280;63506;49.346;8.798;2022-12-18T05:47:27;84513.16;;;13.17;0.00
74942;BME280;63506;49.346;8.798;2022-12-18T05:49:53;84518.38;;;13.17;0.00
74942;BME280;63506;49.346;8.798;2022-12-18T05:52:19;84509.81;;;13.17;0.00
74942;BME280;63506;49.346;8.798;2022-12-18T05:54:45;84501.72;;;13.20;0.00
74942;BME280;63506;49.346;8.798;2022-12-18T05:57:12;84498.19;;;13.18;0.00
74942;BME280;63506;49.346;8.798;2022-12-18T05:59:38;84493.16;;;13.20;0.00
74942;BME280;63506;49.346;8.798;2022-12-18T06:02:07;84494.56;;;13.21;0.00
74942;BME280;63506;49.346;8.798;2022-12-18T06:04:33;84498.19;;;13.18;0.00
74942;BME280;63506;49.346;8.798;2022-12-18T06:06:59;84499.38;;;13.17;0.00
74942;BME280;63506;49.346;8.798;2022-12-18T06:09:31;84500.59;;;13.16;0.00
74942;BME280;63506;49.346;8.798;2022-12-18T06:11:58;84500.28;;;13.19;0.00
74942;BME280;63506;49.346;8.798;2022-12-18T06:14:25;84506.22;;;13.20;0.00
74942;BME280;63506;49.346;8.798;2022-12-18T06:16:52;84508.63;;;13.18;0.00
74942;BME280;63506;49.346;8.798;2022-12-18T06:19:18;84514.78;;;13.20;0.00
74942;BME280;63506;49.346;8.798;2022-12-18T06:21:46;84521.59;;;13.23;0.00
74942;BME280;63506;49.346;8.798;2022-12-18T06:24:12;84515.47;;;13.21;0.00
74942;BME280;63506;49.346;8.798;2022-12-18T06:26:39;84523.31;;;13.21;0.00
74942;BME280;63506;49.346;8.798;2022-12-18T06:29:07;84525.00;;;13.18;0.00
74942;BME280;63506;49.346;8.798;2022-12-18T06:31:33;84527.13;;;13.20;0.00
74942;BME280;63506;49.346;8.798;2022-12-18T06:34:02;84523.09;;;13.19;0.00
74942;BME280;63506;49.346;8.798;2022-12-18T06:36:29;84526.41;;;13.19;0.00
74942;BME280;63506;49.346;8.798;2022-12-18T06:38:56;84527.13;;;13.20;0.00
74942;BME280;63506;49.346;8.798;2022-12-18T06:41:22;84532.34;;;13.20;0.00
74942;BME280;63506;49.346;8.798;2022-12-18T06:43:51;84538.50;;;13.22;0.00
74942;BME280;63506;49.346;8.798;2022-12-18T06:46:22;84533.75;;;13.21;0.00
74942;BME280;63506;49.346;8.798;2022-12-18T06:48:50;84541.09;;;13.22;0.00
74942;BME280;63506;49.346;8.798;2022-12-18T06:51:18;84542.50;;;13.23;0.00
74942;BME280;63506;49.346;8.798;2022-12-18T06:53:46;84540.78;;;13.26;0.00
74942;BME280;63506;49.346;8.798;2022-12-18T06:56:13;84549.84;;;13.25;0.00
74942;BME280;63506;49.346;8.798;2022-12-18T06:58:40;84543.91;;;13.24;0.00
74942;BME280;63506;49.346;8.798;2022-12-18T07:01:09;84547.41;;;13.27;0.00
74942;BME280;63506;49.346;8.798;2022-12-18T07:03:40;84557.16;;;13.26;0.00
74942;BME280;63506;49.346;8.798;2022-12-18T07:06:06;84546.03;;;13.26;0.00
74942;BME280;63506;49.346;8.798;2022-12-18T07:08:38;84560.28;;;13.25;0.00
74942;BME280;63506;49.346;8.798;2022-12-18T07:11:04;84554.56;;;13.26;0.00
74942;BME280;63506;49.346;8.798;2022-12-18T07:13:31;84554.75;;;13.28;0.00
74942;BME280;63506;49.346;8.798;2022-12-18T07:16:23;84556.19;;;13.29;0.00
74942;BME280;63506;49.346;8.798;2022-12-18T07:18:50;84559.97;;;13.28;0.00
74942;BME280;63506;49.346;8.798;2022-12-18T07:21:18;84561.91;;;13.28;0.00
74942;BME280;63506;49.346;8.798;2022-12-18T07:23:45;84558.78;;;13.29;0.00
74942;BME280;63506;49.346;8.798;2022-12-18T07:26:15;84562.09;;;13.30;0.00
74942;BME280;63506;49.346;8.798;2022-12-18T07:28:42;84561.41;;;13.29;0.00
74942;BME280;63506;49.346;8.798;2022-12-18T07:31:11;84559.28;;;13.28;0.00
74942;BME280;63506;49.346;8.798;2022-12-18T07:33:40;84565.22;;;13.28;0.00
74942;BME280;63506;49.346;8.798;2022-12-18T07:36:07;84568.06;;;13.31;0.00
74942;BME280;63506;49.346;8.798;2022-12-18T07:38:35;84569.94;;;13.30;0.00
74942;BME280;63506;49.346;8.798;2022-12-18T07:41:07;84574.47;;;13.29;0.00
74942;BME280;63506;49.346;8.798;2022-12-18T07:43:36;84573.97;;;13.31;0.00
74942;BME280;63506;49.346;8.798;2022-12-18T07:46:04;84572.56;;;13.30;0.00
74942;BME280;63506;49.346;8.798;2022-12-18T07:48:33;84578.72;;;13.33;0.00
74942;BME280;63506;49.346;8.798;2022-12-18T07:51:00;84582.22;;;13.35;0.00
74942;BME280;63506;49.346;8.798;2022-12-18T07:53:28;84581.03;;;13.36;0.00
74942;BME280;63506;49.346;8.798;2022-12-18T07:56:51;84583.84;;;13.38;0.00
74942;BME280;63506;49.346;8.798;2022-12-18T07:58:50;84578.44;;;13.36;0.00
74942;BME280;63506;49.346;8.798;2022-12-18T08:01:16;84580.03;;;13.39;0.00
74942;BME280;63506;49.346;8.798;2022-12-18T08:03:45;84585.78;;;13.38;0.00
74942;BME280;63506;49.346;8.798;2022-12-18T08:06:11;84592.88;;;13.37;0.00
74942;BME280;63506;49.346;8.798;2022-12-18T08:08:40;84587.66;;;13.37;0.00
74942;BME280;63506;49.346;8.798;2022-12-18T08:11:10;84594.09;;;13.36;0.00
74942;BME280;63506;49.346;8.798;2022-12-18T08:13:36;84588.88;;;13.36;0.00
74942;BME280;63506;49.346;8.798;2022-12-18T08:16:07;84586.66;;;13.40;0.00
74942;BME280;63506;49.346;8.798;2022-12-18T08:18:36;84582.16;;;13.41;0.00
74942;BME280;63506;49.346;8.798;2022-12-18T08:21:09;84589.28;;;13.40;0.00
74942;BME280;63506;49.346;8.798;2022-12-18T08:23:37;84592.31;;;13.44;0.00
74942;BME280;63506;49.346;8.798;2022-12-18T08:26:03;84590.91;;;13.43;0.00
74942;BME280;63506;49.346;8.798;2022-12-18T08:28:32;84595.13;;;13.46;0.00
74942;BME280;63506;49.346;8.798;2022-12-18T08:30:58;84586.06;;;13.47;0.00
74942;BME280;63506;49.346;8.798;2022-12-18T08:33:25;84586.28;;;13.50;0.00
74942;BME280;63506;49.346;8.798;2022-12-18T08:35:52;84586.50;;;13.52;0.00
74942;BME280;63506;49.346;8.798;2022-12-18T08:38:18;84599.75;;;13.54;0.00
74942;BME280;63506;49.346;8.798;2022-12-18T08:40:44;84597.16;;;13.54;0.00
74942;BME280;63506;49.346;8.798;2022-12-18T08:43:11;84609.03;;;13.55;0.00
74942;BME280;63506;49.346;8.798;2022-12-18T08:45:56;84590.22;;;13.56;0.00
74942;BME280;63506;49.346;8.798;2022-12-18T08:48:22;84584.47;;;13.58;0.00
74942;BME280;63506;49.346;8.798;2022-12-18T08:50:58;84582.38;;;13.56;0.00
74942;BME280;63506;49.346;8.798;2022-12-18T08:53:25;84585.38;;;13.60;0.00
74942;BME280;63506;49.346;8.798;2022-12-18T08:55:56;84579.66;;;13.62;0.00
74942;BME280;63506;49.346;8.798;2022-12-18T08:58:22;84587.00;;;13.63;0.00
74942;BME280;63506;49.346;8.798;2022-12-18T09:00:51;84577.94;;;13.64;0.00
74942;BME280;63506;49.346;8.798;2022-12-18T09:03:19;84578.44;;;13.63;0.00
74942;BME280;63506;49.346;8.798;2022-12-18T09:05:45;84574.81;;;13.66;0.00
74942;BME280;63506;49.346;8.798;2022-12-18T09:08:15;84581.47;;;13.67;0.00
74942;BME280;63506;49.346;8.798;2022-12-18T09:10:48;84576.25;;;13.67;0.00
74942;BME280;63506;49.346;8.798;2022-12-18T09:13:15;84579.25;;;13.71;0.00
74942;BME280;63506;49.346;8.798;2022-12-18T09:15:45;84577.38;;;13.72;0.00
74942;BME280;63506;49.346;8.798;2022-12-18T09:18:14;84565.19;;;13.74;0.00
74942;BME280;63506;49.346;8.798;2022-12-18T09:20:40;84564.19;;;13.77;0.00
74942;BME280;63506;49.346;8.798;2022-12-18T09:23:07;84564.19;;;13.77;0.00
74942;BME280;63506;49.346;8.798;2022-12-18T09:25:34;84574.66;;;13.77;0.00
74942;BME280;63506;49.346;8.798;2022-12-18T09:28:03;84569.41;;;13.77;0.00
74942;BME280;63506;49.346;8.798;2022-12-18T09:30:30;84577.44;;;13.79;0.00
74942;BME280;63506;49.346;8.798;2022-12-18T09:32:56;84578.88;;;13.80;0.00
74942;BME280;63506;49.346;8.798;2022-12-18T09:35:27;84576.94;;;13.81;0.00
74942;BME280;63506;49.346;8.798;2022-12-18T09:37:54;84574.72;;;13.85;0.00
74942;BME280;63506;49.346;8.798;2022-12-18T09:40:23;84578.97;;;13.88;0.00
74942;BME280;63506;49.346;8.798;2022-12-18T09:43:02;84582.50;;;13.91;0.00
74942;BME280;63506;49.346;8.798;2022-12-18T09:45:37;84586.09;;;13.88;0.00
74942;BME280;63506;49.346;8.798;2022-12-18T09:48:19;84594.66;;;13.88;0.00
74942;BME280;63506;49.346;8.798;2022-12-18T09:50:50;84600.81;;;13.91;0.00
74942;BME280;63506;49.346;8.798;2022-12-18T09:53:26;84602.69;;;13.90;0.00
74942;BME280;63506;49.346;8.798;2022-12-18T09:56:00;84610.75;;;13.92;0.00
74942;BME280;63506;49.346;8.798;2022-12-18T09:58:36;84616.88;;;13.95;0.00
74942;BME280;63506;49.346;8.798;2022-12-18T10:01:14;84605.22;;;13.96;0.00
74942;BME280;63506;49.346;8.798;2022-12-18T10:03:48;84612.56;;;13.97;0.00
74942;BME280;63506;49.346;8.798;2022-12-18T10:08:49;84621.13;;;13.98;0.00
74942;BME280;63506;49.346;8.798;2022-12-18T10:11:40;84624.13;;;14.02;0.00
74942;BME280;63506;49.346;8.798;2022-12-18T10:17:01;84623.13;;;14.05;0.00
74942;BME280;63506;49.346;8.798;2022-12-18T10:19:51;84612.84;;;14.07;0.00
74942;BME280;63506;49.346;8.798;2022-12-18T10:25:01;84599.78;;;14.07;0.00
74942;BME280;63506;49.346;8.798;2022-12-18T10:27:32;84605.00;;;14.07;0.00
74942;BME280;63506;49.346;8.798;2022-12-18T10:30:12;84608.53;;;14.10;0.00
74942;BME280;63506;49.346;8.798;2022-12-18T10:32:39;84612.78;;;14.13;0.00
74942;BME280;63506;49.346;8.798;2022-12-18T10:35:15;84613.47;;;14.13;0.00
74942;BME280;63506;49.346;8.798;2022-12-18T10:38:26;84608.22;;;14.13;0.00
74942;BME280;63506;49.346;8.798;2022-12-18T10:40:58;84615.78;;;14.17;0.00
74942;BME280;63506;49.346;8.798;2022-12-18T10:43:36;84611.66;;;14.21;0.00
74942;BME280;63506;49.346;8.798;2022-12-18T10:48:31;84611.03;;;14.42;0.00
74942;BME280;63506;49.346;8.798;2022-12-18T10:50:59;84597.84;;;14.82;0.00
74942;BME280;63506;49.346;8.798;2022-12-18T10:53:28;84585.84;;;14.52;0.00
74942;BME280;63506;49.346;8.798;2022-12-18T10:55:59;84581.31;;;14.39;0.00
74942;BME280;63506;49.346;8.798;2022-12-18T10:58:35;84575.69;;;14.35;0.00
74942;BME280;63506;49.346;8.798;2022-12-18T11:01:03;84574.28;;;14.34;0.00
74942;BME280;63506;49.346;8.798;2022-12-18T11:03:39;84584.25;;;14.36;0.00
74942;BME280;63506;49.346;8.798;2022-12-18T11:06:13;84584.25;;;14.36;0.00
74942;BME280;63506;49.346;8.798;2022-12-18T11:08:56;84581.81;;;14.38;0.00
74942;BME280;63506;49.346;8.798;2022-12-18T11:11:26;84576.81;;;14.40;0.00
74942;BME280;63506;49.346;8.798;2022-12-18T11:14:14;84581.63;;;14.36;0.00
74942;BME280;63506;49.346;8.798;2022-12-18T11:16:49;84584.13;;;14.41;0.00
74942;BME280;63506;49.346;8.798;2022-12-18T11:19:33;84578.00;;;14.39;0.00
74942;BME280;63506;49.346;8.798;2022-12-18T11:24:53;84586.47;;;14.45;0.00
74942;BME280;63506;49.346;8.798;2022-12-18T11:27:20;84586.47;;;14.45;0.00
74942;BME280;63506;49.346;8.798;2022-12-18T11:29:49;84580.72;;;14.47;0.00
74942;BME280;63506;49.346;8.798;2022-12-18T11:32:37;84589.66;;;14.51;0.00
74942;BME280;63506;49.346;8.798;2022-12-18T11:35:15;84586.84;;;14.49;0.00
74942;BME280;63506;49.346;8.798;2022-12-18T11:37:48;84598.94;;;14.52;0.00
74942;BME280;63506;49.346;8.798;2022-12-18T11:40:23;84593.88;;;14.54;0.00
74942;BME280;63506;49.346;8.798;2022-12-18T11:45:52;84585.00;;;14.57;0.00
74942;BME280;63506;49.346;8.798;2022-12-18T11:50:56;84579.78;;;14.57;0.00
74942;BME280;63506;49.346;8.798;2022-12-18T11:53:27;84573.13;;;14.56;0.00
74942;BME280;63506;49.346;8.798;2022-12-18T11:58:44;84574.06;;;14.59;0.00
74942;BME280;63506;49.346;8.798;2022-12-18T12:03:59;84556.44;;;14.59;0.00
74942;BME280;63506;49.346;8.798;2022-12-18T12:12:21;84544.94;;;14.63;0.00
74942;BME280;63506;49.346;8.798;2022-12-18T12:15:10;84554.19;;;14.64;0.00
74942;BME280;63506;49.346;8.798;2022-12-18T12:28:33;84562.97;;;14.66;0.00
74942;BME280;63506;49.346;8.798;2022-12-18T12:33:51;84561.44;;;14.71;0.00
74942;BME280;63506;49.346;8.798;2022-12-18T12:39:15;84561.44;;;14.71;0.00
74942;BME280;63506;49.346;8.798;2022-12-18T12:41:45;84559.53;;;14.71;0.00
74942;BME280;63506;49.346;8.798;2022-12-18T12:44:39;84569.50;;;14.73;0.00
74942;BME280;63506;49.346;8.798;2022-12-18T12:47:14;84579.97;;;14.73;0.00
74942;BME280;63506;49.346;8.798;2022-12-18T12:49:46;84582.28;;;14.76;0.00
74942;BME280;63506;49.346;8.798;2022-12-18T12:52:17;84588.72;;;14.75;0.00
74942;BME280;63506;49.346;8.798;2022-12-18T12:54:47;84582.78;;;14.75;0.00
74942;BME280;63506;49.346;8.798;2022-12-18T13:00:10;84552.75;;;14.76;0.00
74942;BME280;63506;49.346;8.798;2022-12-18T13:07:56;84539.84;;;14.78;0.00
74942;BME280;63506;49.346;8.798;2022-12-18T13:10:40;84538.44;;;14.77;0.00
74942;BME280;63506;49.346;8.798;2022-12-18T13:13:10;84531.81;;;14.76;0.00
74942;BME280;63506;49.346;8.798;2022-12-18T13:15:40;84539.84;;;14.78;0.00
74942;BME280;63506;49.346;8.798;2022-12-18T13:34:25;84525.94;;;14.83;0.00
74942;BME280;63506;49.346;8.798;2022-12-18T13:36:54;84524.91;;;14.86;0.00
74942;BME280;63506;49.346;8.798;2022-12-18T13:39:30;84524.91;;;14.86;0.00
74942;BME280;63506;49.346;8.798;2022-12-18T13:44:34;84515.13;;;14.87;0.00
74942;BME280;63506;49.346;8.798;2022-12-18T13:47:03;84517.06;;;14.86;0.00
74942;BME280;63506;49.346;8.798;2022-12-18T13:52:02;84530.84;;;15.08;0.00
74942;BME280;63506;49.346;8.798;2022-12-18T13:54:37;84533.53;;;15.65;0.00
74942;BME280;63506;49.346;8.798;2022-12-18T13:57:26;84506.41;;;16.28;0.00
74942;BME280;63506;49.346;8.798;2022-12-18T13:59:53;84480.69;;;16.26;0.00
74942;BME280;63506;49.346;8.798;2022-12-18T14:02:28;84479.03;;;16.08;0.00
74942;BME280;63506;49.346;8.798;2022-12-18T14:04:54;84480.56;;;16.03;0.00
74942;BME280;63506;49.346;8.798;2022-12-18T14:07:25;84494.22;;;16.02;0.00
74942;BME280;63506;49.346;8.798;2022-12-18T14:09:53;100568.59;;;20.32;nan
74942;BME280;63506;49.346;8.798;2022-12-18T14:12:31;100559.00;;;17.62;nan
74942;BME280;63506;49.346;8.798;2022-12-18T14:18:26;100593.50;;;17.10;nan
74942;BME280;63506;49.346;8.798;2022-12-18T14:20:58;100603.75;;;17.03;nan
74942;BME280;63506;49.346;8.798;2022-12-18T14:23:38;100621.41;;;17.12;nan
74942;BME280;63506;49.346;8.798;2022-12-18T14:26:27;100621.59;;;17.20;nan
74942;BME280;63506;49.346;8.798;2022-12-18T14:28:56;100609.19;;;17.11;nan
74942;BME280;63506;49.346;8.798;2022-12-18T14:31:24;100612.81;;;17.10;nan
74942;BME280;63506;49.346;8.798;2022-12-18T14:33:51;100613.19;;;17.06;nan
74942;BME280;63506;49.346;8.798;2022-12-18T14:36:28;100622.25;;;17.13;nan
74942;BME280;63506;49.346;8.798;2022-12-18T14:38:58;100609.03;;;17.13;nan
74942;BME280;63506;49.346;8.798;2022-12-18T14:41:25;100612.53;;;17.13;nan
74942;BME280;63506;49.346;8.798;2022-12-18T14:43:53;100614.38;;;17.23;nan
74942;BME280;63506;49.346;8.798;2022-12-18T14:49:00;100618.38;;;17.17;nan
74942;BME280;63506;49.346;8.798;2022-12-18T14:51:32;100630.22;;;17.23;nan
74942;BME280;63506;49.346;8.798;2022-12-18T14:54:00;100635.34;;;17.24;nan
74942;BME280;63506;49.346;8.798;2022-12-18T15:01:27;100627.31;;;17.26;nan
74942;BME280;63506;49.346;8.798;2022-12-18T15:03:55;100625.06;;;17.21;nan
74942;BME280;63506;49.346;8.798;2022-12-18T15:06:36;100629.06;;;17.15;nan
74942;BME280;63506;49.346;8.798;2022-12-18T15:09:25;100608.22;;;17.12;nan
74942;BME280;63506;49.346;8.798;2022-12-18T15:11:57;100604.88;;;17.10;nan
74942;BME280;63506;49.346;8.798;2022-12-18T15:16:57;100603.59;;;17.05;nan
74942;BME280;63506;49.346;8.798;2022-12-18T15:19:32;100600.81;;;16.96;nan
74942;BME280;63506;49.346;8.798;2022-12-18T15:22:01;100601.19;;;16.92;nan
74942;BME280;63506;49.346;8.798;2022-12-18T15:24:30;100595.34;;;16.88;nan
74942;BME280;63506;49.346;8.798;2022-12-18T15:26:58;100596.19;;;16.89;nan
74942;BME280;63506;49.346;8.798;2022-12-18T15:29:27;100596.44;;;16.86;nan
74942;BME280;63506;49.346;8.798;2022-12-18T15:32:10;100590.00;;;16.78;nan